Time;durP1;ratioP1;P1;durP2;ratioP2;P2;SDS_P1;SDS_P2;PMS_P1;PMS_P2;Temp;Humidity;BMP_temperature;BMP_pressure;BME280_temperature;BME280_humidity;BME280_pressure;Samples;Min_cycle;Max_cycle;Signal;HPM_P1;HPM_P2
2022/08/12 00:43:43;;;;;;;9.80;6.70;;;;;;;16.53;65.04;101107.92;109440;1261;21975;-75
2022/08/12 00:46:30;;;;;;;11.20;6.40;;;;;;;16.54;65.26;101105.97;109545;1260;22076;-75
2022/08/12 00:49:01;;;;;;;9.00;6.00;;;;;;;16.55;65.32;101107.70;108949;1267;23091;-76
2022/08/12 00:54:20;;;;;;;11.70;6.50;;;;;;;16.53;65.26;101111.55;109412;1264;23681;-76
2022/08/12 00:56:53;;;;;;;9.20;6.50;;;;;;;16.55;65.41;101108.39;108926;1269;22752;-76
2022/08/12 00:59:23;;;;;;;7.80;7.00;;;;;;;16.56;65.47;101110.33;109122;1267;22857;-76
2022/08/12 01:01:53;;;;;;;11.10;6.80;;;;;;;16.58;65.80;101115.91;108686;1273;24017;-75
2022/08/12 01:13:17;;;;;;;9.20;6.40;;;;;;;16.62;65.53;101123.50;109702;1263;21998;-76
2022/08/12 01:15:55;;;;;;;9.20;7.00;;;;;;;16.64;65.43;101122.37;110167;1258;22993;-76
2022/08/12 01:18:34;;;;;;;10.00;7.40;;;;;;;16.66;65.34;101118.58;110315;1258;23727;-77
2022/08/12 01:21:35;;;;;;;13.30;8.30;;;;;;;16.67;65.30;101119.82;110473;1253;22270;-75
2022/08/12 01:24:48;;;;;;;7.30;6.00;;;;;;;16.69;65.46;101117.63;110586;1253;23572;-76
2022/08/12 01:27:22;;;;;;;11.10;7.00;;;;;;;16.69;65.45;101113.15;110297;1256;23804;-75
2022/08/12 01:29:55;;;;;;;8.60;6.40;;;;;;;16.72;65.44;101113.31;109232;1261;21975;-75
2022/08/12 01:32:28;;;;;;;10.20;6.70;;;;;;;16.74;65.33;101115.56;109590;1262;23605;-75
2022/08/12 01:35:07;;;;;;;13.10;6.30;;;;;;;16.77;65.36;101117.06;109765;1261;21977;-75
2022/08/12 01:37:55;;;;;;;10.00;6.50;;;;;;;16.79;65.37;101118.40;109753;1261;21972;-76
2022/08/12 01:40:30;;;;;;;9.90;7.00;;;;;;;16.81;65.31;101119.01;109603;1261;22772;-76
2022/08/12 01:43:14;;;;;;;9.30;7.60;;;;;;;16.84;65.36;101119.54;109570;1263;23766;-75
2022/08/12 01:46:28;;;;;;;9.10;5.50;;;;;;;16.86;65.23;101122.83;109785;1259;22291;-75
2022/08/12 01:49:12;;;;;;;5.80;4.90;;;;;;;16.89;65.10;101127.09;110533;1253;21965;-76
2022/08/12 01:51:48;;;;;;;12.00;6.10;;;;;;;16.94;64.99;101122.98;110712;1251;24441;-77
2022/08/12 01:54:43;;;;;;;6.80;4.90;;;;;;;16.97;64.92;101123.97;110498;1253;21959;-75
2022/08/12 01:57:35;;;;;;;7.90;5.80;;;;;;;17.01;64.75;101119.48;110532;1253;22092;-76
2022/08/12 02:00:34;;;;;;;7.20;5.30;;;;;;;17.03;64.84;101119.72;110584;1253;22981;-76
2022/08/12 02:13:58;;;;;;;11.10;5.70;;;;;;;17.10;65.01;101132.80;108913;1270;22090;-75
2022/08/12 02:17:04;;;;;;;6.00;4.50;;;;;;;17.12;64.94;101140.95;108694;1273;22048;-75
2022/08/12 02:20:25;;;;;;;6.20;4.10;;;;;;;17.13;64.69;101139.94;108498;1276;21998;-75
2022/08/12 02:23:18;;;;;;;6.80;3.80;;;;;;;17.11;64.40;101128.26;108453;1276;22555;-75
2022/08/12 02:25:50;;;;;;;5.40;3.70;;;;;;;17.09;64.53;101128.64;108480;1276;22018;-75
2022/08/12 02:28:23;;;;;;;5.20;4.10;;;;;;;17.12;64.41;101139.52;108522;1273;22007;-77
2022/08/12 02:30:54;;;;;;;5.50;3.20;;;;;;;17.14;64.39;101144.79;108516;1274;23733;-75
2022/08/12 02:33:24;;;;;;;7.80;4.10;;;;;;;17.16;64.32;101145.55;108457;1276;22004;-75
2022/08/12 02:35:54;;;;;;;5.70;4.00;;;;;;;17.17;64.16;101147.27;108276;1276;21989;-75
2022/08/12 02:38:29;;;;;;;5.30;3.80;;;;;;;17.13;64.04;101151.76;108249;1276;23641;-75
2022/08/12 02:41:03;;;;;;;7.30;4.10;;;;;;;17.07;64.15;101145.70;108351;1276;24322;-75
2022/08/12 02:43:52;;;;;;;9.10;4.50;;;;;;;17.04;64.37;101139.48;108053;1280;22432;-76
2022/08/12 02:46:31;;;;;;;5.10;4.10;;;;;;;17.00;64.46;101138.45;108006;1282;25066;-76
2022/08/12 02:49:31;;;;;;;7.20;4.40;;;;;;;16.96;64.52;101137.63;107832;1276;22014;-75
2022/08/12 02:52:07;;;;;;;6.30;5.10;;;;;;;16.92;64.48;101139.73;108381;1277;22159;-75
2022/08/12 02:54:40;;;;;;;8.90;5.00;;;;;;;16.88;64.80;101140.60;108352;1279;22040;-75
2022/08/12 02:57:12;;;;;;;7.00;4.50;;;;;;;16.85;65.02;101137.54;108233;1278;22003;-76
2022/08/12 02:59:46;;;;;;;5.80;4.50;;;;;;;16.81;65.18;101132.27;108650;1267;21979;-75
2022/08/12 03:02:23;;;;;;;8.00;4.60;;;;;;;16.75;65.43;101131.33;109258;1264;24994;-75
2022/08/12 03:04:56;;;;;;;7.70;4.70;;;;;;;16.67;65.85;101131.59;109232;1264;23592;-74
2022/08/12 03:07:42;;;;;;;10.40;5.10;;;;;;;16.59;66.21;101126.17;108789;1262;23968;-74
2022/08/12 03:10:31;;;;;;;6.70;4.70;;;;;;;16.50;66.96;101118.60;108808;1269;22787;-75
2022/08/12 03:13:07;;;;;;;7.70;4.50;;;;;;;16.46;67.40;101112.45;109126;1264;23071;-75
2022/08/12 03:15:37;;;;;;;8.70;5.20;;;;;;;16.43;67.93;101109.08;108758;1270;23094;-75
2022/08/12 03:18:20;;;;;;;6.60;4.90;;;;;;;16.40;68.48;101097.53;108439;1276;22014;-75
2022/08/12 03:20:59;;;;;;;8.90;5.70;;;;;;;16.39;68.98;101087.30;108331;1279;22001;-76
2022/08/12 03:23:32;;;;;;;10.60;5.60;;;;;;;16.40;69.48;101090.88;108425;1279;22213;-78
2022/08/12 03:26:05;;;;;;;11.90;5.20;;;;;;;16.42;69.93;101097.80;108304;1276;23715;-76
2022/08/12 03:28:50;;;;;;;6.80;4.80;;;;;;;16.44;70.19;101093.70;108373;1270;22040;-76
2022/08/12 03:31:32;;;;;;;5.70;4.40;;;;;;;16.41;70.43;101094.74;108682;1270;21992;-75
2022/08/12 03:34:07;;;;;;;;;;;;;;;16.41;70.76;101095.09;108655;1270;22099;-76
2022/08/12 03:36:41;;;;;;;6.50;4.50;;;;;;;16.36;71.12;101094.81;108669;1270;24344;-76
2022/08/12 03:42:13;;;;;;;5.40;3.80;;;;;;;16.44;71.66;101091.14;109408;1262;22437;-75
2022/08/12 04:02:17;;;;;;;7.30;4.20;;;;;;;16.67;72.41;101099.17;109307;1261;21982;-75
2022/08/12 04:04:55;;;;;;;5.70;4.70;;;;;;;16.69;72.45;101104.05;109593;1264;22036;-75
2022/08/12 04:07:30;;;;;;;5.30;4.70;;;;;;;16.72;72.47;101110.33;109504;1263;22035;-75
2022/08/12 04:10:08;;;;;;;6.40;5.50;;;;;;;16.75;72.70;101114.75;109741;1264;22749;-75
2022/08/12 04:13:18;;;;;;;6.50;4.80;;;;;;;16.82;73.01;101116.43;109565;1263;21980;-76
2022/08/12 04:15:57;;;;;;;10.80;6.70;;;;;;;16.85;73.16;101110.84;109325;1263;21975;-76
2022/08/12 04:18:28;;;;;;;7.70;6.20;;;;;;;16.94;73.33;101107.47;109205;1267;23593;-75
2022/08/12 04:20:57;;;;;;;5.70;5.10;;;;;;;17.03;73.41;101107.56;108810;1267;21968;-76
2022/08/12 04:23:33;;;;;;;6.40;5.60;;;;;;;17.11;73.32;101107.80;109108;1261;21997;-76
2022/08/12 04:26:09;;;;;;;7.40;6.10;;;;;;;17.18;73.56;101103.20;110201;1259;21975;-75
2022/08/12 04:28:46;;;;;;;7.00;6.40;;;;;;;17.27;73.65;101106.81;109227;1264;21972;-76
2022/08/12 04:31:29;;;;;;;7.10;5.40;;;;;;;17.36;73.76;101105.66;109008;1264;22104;-75
2022/08/12 04:34:16;;;;;;;8.00;5.40;;;;;;;17.47;73.90;101102.40;109034;1267;22003;-75
2022/08/12 04:36:58;;;;;;;7.00;5.00;;;;;;;17.57;73.75;101099.11;109386;1261;21980;-76
2022/08/12 04:39:43;;;;;;;;;;;;;;;17.66;73.66;101099.11;109614;1261;21946;-75
2022/08/12 04:42:25;;;;;;;6.90;6.30;;;;;;;17.67;73.62;101098.02;109938;1260;21968;-75
2022/08/12 04:45:00;;;;;;;9.70;8.20;;;;;;;17.72;73.15;101099.45;109185;1266;22044;-77
2022/08/12 04:47:39;;;;;;;9.90;8.90;;;;;;;17.75;72.79;101097.17;109165;1267;24300;-78
2022/08/12 04:50:31;;;;;;;8.90;8.10;;;;;;;17.79;72.55;101102.69;108961;1267;23624;-76
2022/08/12 04:53:30;;;;;;;8.10;7.40;;;;;;;17.83;72.55;101099.55;109368;1261;22337;-76
2022/08/12 04:56:19;;;;;;;8.20;7.40;;;;;;;17.88;72.46;101093.08;109749;1261;23597;-76
2022/08/12 04:59:20;;;;;;;8.30;7.10;;;;;;;17.95;72.37;101099.48;109703;1260;23710;-76
2022/08/12 05:02:08;;;;;;;7.70;6.70;;;;;;;18.01;72.35;101097.66;109610;1261;21963;-76
2022/08/12 05:05:19;;;;;;;10.10;6.80;;;;;;;18.08;72.51;101093.80;109173;1267;21975;-76
2022/08/12 05:08:03;;;;;;;8.20;7.30;;;;;;;18.16;72.53;101092.25;109089;1264;22200;-75
2022/08/12 05:10:46;;;;;;;8.30;7.60;;;;;;;18.25;72.47;101091.68;109602;1260;22017;-77
2022/08/12 05:13:26;;;;;;;7.90;7.10;;;;;;;18.32;72.38;101094.91;109991;1258;22061;-76
2022/08/12 05:15:55;;;;;;;10.50;6.80;;;;;;;18.40;72.25;101095.30;109999;1259;23007;-76
2022/08/12 05:18:38;;;;;;;6.90;6.20;;;;;;;18.44;71.99;101096.19;109991;1258;21972;-78
2022/08/12 05:21:18;;;;;;;7.50;6.20;;;;;;;18.45;71.72;101092.65;109816;1258;21965;-77
2022/08/12 05:23:50;;;;;;;7.30;6.60;;;;;;;18.45;71.48;101086.23;110335;1253;21962;-76
2022/08/12 05:26:21;;;;;;;;;;;;;;;18.46;71.52;101082.80;110403;1255;21941;-76
2022/08/12 05:29:02;;;;;;;7.20;6.00;;;;;;;18.43;72.05;101084.87;110492;1253;23619;-78
2022/08/12 05:31:54;;;;;;;8.00;7.30;;;;;;;18.50;72.24;101084.83;110516;1253;22027;-76
2022/08/12 05:34:30;;;;;;;7.80;6.30;;;;;;;18.61;72.25;101081.20;110540;1253;22530;-78
2022/08/12 05:37:02;;;;;;;9.40;6.10;;;;;;;18.74;72.13;101084.21;110431;1253;22324;-77
2022/08/12 05:39:36;;;;;;;6.90;5.90;;;;;;;18.85;71.82;101087.03;110759;1253;22748;-77
2022/08/12 05:42:11;;;;;;;7.80;6.30;;;;;;;18.94;71.56;101085.77;110353;1257;23015;-77
2022/08/12 05:45:01;;;;;;;5.80;5.20;;;;;;;19.10;71.82;101085.48;109951;1258;23674;-78
2022/08/12 05:47:40;;;;;;;12.30;6.40;;;;;;;19.33;72.21;101086.30;109858;1256;23485;-77
2022/08/12 05:50:46;;;;;;;7.30;5.30;;;;;;;19.59;71.80;101081.78;110122;1256;23686;-77
2022/08/12 05:53:24;;;;;;;12.30;11.00;;;;;;;19.89;71.24;101088.28;109462;1261;21981;-77
2022/08/12 05:55:56;;;;;;;7.40;5.20;;;;;;;20.16;70.41;101091.40;109281;1264;21999;-77
2022/08/12 05:58:25;;;;;;;6.50;5.20;;;;;;;20.39;69.68;101088.10;109086;1267;23921;-77
2022/08/12 06:01:00;;;;;;;6.00;5.30;;;;;;;20.67;69.28;101091.35;108789;1270;22172;-78
2022/08/12 06:03:54;;;;;;;5.90;5.20;;;;;;;21.00;68.50;101089.23;108735;1270;23043;-75
2022/08/12 06:06:25;;;;;;;5.90;4.80;;;;;;;21.36;67.99;101088.73;108691;1270;21994;-76
2022/08/12 06:09:02;;;;;;;6.50;4.40;;;;;;;21.70;66.39;101090.63;108684;1272;22177;-77
2022/08/12 06:11:36;;;;;;;6.60;4.60;;;;;;;22.01;65.19;101090.20;108963;1264;22164;-77
2022/08/12 06:14:31;;;;;;;5.40;4.70;;;;;;;22.43;64.86;101094.78;109115;1263;21994;-77
2022/08/12 06:17:24;;;;;;;6.40;5.80;;;;;;;22.94;63.98;101094.29;109049;1267;23174;-77
2022/08/12 06:20:01;;;;;;;6.30;4.60;;;;;;;23.40;62.71;101095.02;109755;1260;21964;-77
2022/08/12 06:22:57;;;;;;;7.30;4.10;;;;;;;23.89;60.93;101096.05;109744;1261;21974;-77
2022/08/12 06:25:40;;;;;;;10.90;4.80;;;;;;;24.29;59.15;101096.39;109832;1259;23033;-77
2022/08/12 06:28:29;;;;;;;9.70;4.70;;;;;;;24.61;58.54;101093.17;109674;1260;22069;-78
2022/08/12 06:31:10;;;;;;;8.70;4.70;;;;;;;24.99;57.81;101093.16;108981;1267;22126;-78
2022/08/12 06:33:56;;;;;;;5.60;2.80;;;;;;;25.35;56.96;101089.38;108904;1267;21978;-77
2022/08/12 06:36:53;;;;;;;7.20;2.00;;;;;;;25.77;55.34;101091.49;109893;1258;21986;-76
2022/08/12 06:39:23;;;;;;;3.20;2.10;;;;;;;26.12;53.38;101091.21;110202;1257;23024;-77
2022/08/12 06:45:17;;;;;;;4.20;1.90;;;;;;;26.60;50.16;101088.88;110202;1258;24355;-77
2022/08/12 06:47:51;;;;;;;5.90;3.20;;;;;;;26.79;49.62;101087.16;110033;1257;21979;-76
2022/08/12 06:50:37;;;;;;;5.80;2.00;;;;;;;26.99;48.75;101084.02;110078;1255;22043;-76
2022/08/12 06:53:15;;;;;;;3.30;2.50;;;;;;;27.12;47.68;101087.88;110261;1256;23045;-77
2022/08/12 06:55:53;;;;;;;2.90;2.10;;;;;;;27.27;46.93;101089.98;110285;1254;21976;-77
2022/08/12 06:58:31;;;;;;;6.30;2.20;;;;;;;27.37;46.30;101093.64;110456;1255;21953;-77
2022/08/12 07:01:16;;;;;;;7.40;2.50;;;;;;;27.46;45.99;101091.74;110487;1254;23777;-77
2022/08/12 07:04:37;;;;;;;3.60;1.80;;;;;;;27.54;45.05;101088.38;110502;1255;24414;-76
2022/08/12 07:07:19;;;;;;;3.60;2.10;;;;;;;27.50;44.52;101089.70;110493;1255;21993;-77
2022/08/12 07:10:00;;;;;;;2.30;2.00;;;;;;;27.55;45.01;101090.48;110410;1256;21957;-77
2022/08/12 07:12:47;;;;;;;3.40;1.40;;;;;;;27.66;44.61;101086.20;110494;1252;22043;-78
2022/08/12 07:15:27;;;;;;;3.50;1.60;;;;;;;27.72;43.40;101092.38;109952;1260;22109;-77
2022/08/12 07:18:14;;;;;;;3.90;1.20;;;;;;;27.60;42.72;101097.09;109070;1264;23682;-77
2022/08/12 07:21:01;;;;;;;4.50;1.30;;;;;;;27.55;42.73;101097.21;109325;1264;23082;-78
2022/08/12 07:24:22;;;;;;;2.10;1.00;;;;;;;27.47;42.20;101100.48;109210;1264;23065;-77
2022/08/12 07:27:20;;;;;;;2.10;1.30;;;;;;;27.22;42.25;101098.96;109281;1264;23601;-77
2022/08/12 07:30:23;;;;;;;2.70;1.40;;;;;;;27.17;42.78;101089.55;109456;1263;22288;-80
2022/08/12 07:33:23;;;;;;;4.20;1.70;;;;;;;27.29;43.31;101091.25;108740;1267;22073;-77
2022/08/12 07:36:07;;;;;;;5.60;1.40;;;;;;;27.55;43.54;101089.83;109411;1258;23672;-78
2022/08/12 07:38:58;;;;;;;2.70;1.40;;;;;;;27.77;42.40;101093.34;109907;1257;21971;-78
2022/08/12 07:41:35;;;;;;;2.50;1.70;;;;;;;27.75;41.78;101087.95;109208;1265;22473;-77
2022/08/12 07:44:15;;;;;;;3.10;1.90;;;;;;;27.72;42.30;101090.14;109187;1264;23070;-77
2022/08/12 07:46:55;;;;;;;3.40;1.40;;;;;;;27.84;42.13;101095.81;109091;1265;23045;-78
2022/08/12 07:49:28;;;;;;;2.80;1.90;;;;;;;27.90;41.34;101093.77;109542;1263;22966;-78
2022/08/12 07:52:09;;;;;;;4.40;2.00;;;;;;;27.77;40.82;101094.41;110024;1260;22958;-78
2022/08/12 07:54:48;;;;;;;4.40;1.60;;;;;;;27.67;41.12;101094.41;109264;1266;22099;-77
2022/08/12 07:57:26;;;;;;;4.30;1.60;;;;;;;27.71;41.14;101091.55;109169;1266;21990;-77
2022/08/12 08:00:04;;;;;;;3.90;1.80;;;;;;;27.83;41.48;101088.11;108958;1266;23608;-75
2022/08/12 08:02:40;;;;;;;3.00;1.60;;;;;;;28.03;40.78;101084.55;109040;1267;21983;-77
2022/08/12 08:05:45;;;;;;;4.30;1.60;;;;;;;28.24;40.60;101087.11;108887;1267;23071;-76
2022/08/12 08:08:34;;;;;;;4.00;2.00;;;;;;;28.30;39.56;101088.91;109190;1267;23045;-77
2022/08/12 08:14:00;;;;;;;3.20;2.50;;;;;;;28.58;39.84;101084.59;109284;1264;22083;-76
2022/08/12 08:16:50;;;;;;;6.00;2.10;;;;;;;28.73;39.08;101084.81;109328;1265;21984;-78
2022/08/12 08:19:32;;;;;;;3.20;1.60;;;;;;;28.84;38.87;101086.06;109259;1264;23856;-75
2022/08/12 08:22:37;;;;;;;6.00;1.50;;;;;;;29.00;38.32;101089.41;109361;1264;23807;-76
2022/08/12 08:25:37;;;;;;;4.90;2.20;;;;;;;29.17;38.51;101085.10;109312;1264;21973;-77
2022/08/12 08:28:24;;;;;;;6.40;1.70;;;;;;;29.45;38.14;101085.03;109251;1264;23634;-75
2022/08/12 08:31:17;;;;;;;4.70;1.70;;;;;;;29.65;37.47;101083.64;110427;1253;23695;-76
2022/08/12 08:34:01;;;;;;;2.50;1.40;;;;;;;29.82;37.06;101080.80;109945;1260;21984;-76
2022/08/12 08:37:01;;;;;;;3.80;2.30;;;;;;;30.05;36.97;101075.36;109694;1260;23775;-76
2022/08/12 08:39:38;;;;;;;8.70;1.90;;;;;;;30.21;36.21;101073.28;109541;1261;21926;-76
2022/08/12 08:45:11;;;;;;;7.60;2.00;;;;;;;30.45;36.47;101073.19;109142;1267;22085;-76
2022/08/12 08:47:45;;;;;;;3.60;2.20;;;;;;;30.65;35.80;101067.46;108943;1267;22126;-77
2022/08/12 08:50:25;;;;;;;4.00;2.10;;;;;;;30.75;35.28;101062.61;108450;1273;21997;-77
2022/08/12 08:52:57;;;;;;;3.50;1.60;;;;;;;30.86;35.19;101064.04;108763;1270;23784;-76
2022/08/12 08:55:41;;;;;;;7.90;2.00;;;;;;;30.90;34.61;101066.42;108540;1272;22075;-76
2022/08/12 08:58:48;;;;;;;;;;;;;;;30.84;34.77;101067.06;108686;1270;21975;-76
2022/08/12 09:01:25;;;;;;;4.60;1.80;;;;;;;30.78;35.01;101063.73;108774;1272;23612;-77
2022/08/12 09:04:10;;;;;;;4.80;1.60;;;;;;;30.72;34.66;101062.83;108531;1273;22446;-77
2022/08/12 09:06:59;;;;;;;3.00;1.80;;;;;;;30.60;34.56;101065.82;108687;1270;21990;-76
2022/08/12 09:09:59;;;;;;;5.20;1.80;;;;;;;30.63;35.19;101065.52;109223;1267;23728;-76
2022/08/12 09:16:05;;;;;;;4.70;2.20;;;;;;;30.94;35.07;101065.12;109836;1260;22346;-77
2022/08/12 09:18:38;;;;;;;3.80;1.70;;;;;;;30.99;34.83;101064.09;109929;1261;21986;-77
2022/08/12 09:21:14;;;;;;;3.30;2.20;;;;;;;31.04;35.25;101064.54;109972;1260;22432;-77
2022/08/12 09:23:57;;;;;;;3.00;1.60;;;;;;;31.18;34.84;101068.16;109910;1260;23589;-77
2022/08/12 09:26:36;;;;;;;3.60;1.70;;;;;;;31.18;34.59;101067.84;109669;1261;21999;-76
2022/08/12 09:29:21;;;;;;;3.70;1.90;;;;;;;31.23;34.82;101067.03;110103;1254;23019;-77
2022/08/12 09:32:22;;;;;;;1.60;1.40;;;;;;;31.30;34.49;101069.45;110883;1253;22002;-78
2022/08/12 09:35:11;;;;;;;3.40;1.60;;;;;;;31.38;34.47;101068.92;110344;1256;22434;-79
2022/08/12 09:38:03;;;;;;;5.50;1.70;;;;;;;31.34;33.71;101065.23;110554;1253;23591;-79
2022/08/12 09:41:01;;;;;;;1.80;1.30;;;;;;;31.17;33.83;101061.73;110485;1253;22458;-77
2022/08/12 09:47:09;;;;;;;1.90;1.50;;;;;;;30.93;34.11;101054.83;110673;1253;23274;-76
2022/08/12 09:49:51;;;;;;;4.40;2.10;;;;;;;30.86;34.16;101052.91;110575;1253;21978;-75
2022/08/12 09:52:31;;;;;;;3.80;1.70;;;;;;;30.78;33.88;101054.29;110576;1253;23623;-76
2022/08/12 09:55:14;;;;;;;5.60;1.80;;;;;;;30.60;34.46;101060.59;109669;1253;1330518;-76
2022/08/12 09:58:15;;;;;;;5.40;1.90;;;;;;;30.61;35.21;101059.43;110532;1253;21974;-76
2022/08/12 10:01:17;;;;;;;3.10;1.80;;;;;;;30.76;34.85;101055.95;110660;1254;22033;-76
2022/08/12 10:03:51;;;;;;;2.50;1.60;;;;;;;30.82;34.45;101053.61;110565;1253;23748;-77
2022/08/12 10:06:31;;;;;;;3.50;2.10;;;;;;;30.72;34.35;101046.58;110652;1253;21984;-78
2022/08/12 10:09:24;;;;;;;3.80;1.80;;;;;;;30.69;34.78;101049.49;110621;1253;21989;-77
2022/08/12 10:15:10;;;;;;;;;;;;;;;30.46;35.06;101036.80;110546;1253;23425;-77
2022/08/12 10:18:22;;;;;;;5.60;1.60;;;;;;;30.55;34.80;101036.96;110643;1253;22036;-77
2022/08/12 10:21:11;;;;;;;2.60;1.60;;;;;;;30.50;34.13;101038.96;110071;1260;23002;-77
2022/08/12 10:23:45;;;;;;;3.70;1.80;;;;;;;30.00;33.87;101035.66;110128;1259;22680;-77
2022/08/12 10:29:38;;;;;;;2.70;1.50;;;;;;;29.70;35.54;101022.14;110276;1257;22761;-79
2022/08/12 10:32:30;;;;;;;;;;;;;;;29.86;35.28;101028.71;110041;1259;23124;-78
2022/08/12 10:35:16;;;;;;;3.40;1.90;;;;;;;29.82;35.42;101032.71;109301;1266;21993;-77
2022/08/12 10:37:48;;;;;;;5.50;2.00;;;;;;;29.82;35.68;101033.63;108958;1267;21999;-77
2022/08/12 10:43:41;;;;;;;2.00;1.60;;;;;;;29.74;35.75;101028.02;109857;1261;22817;-78
2022/08/12 10:43:41;;;;;;;2.80;1.70;;;;;;;29.64;35.91;101020.98;109559;1263;21973;-77
2022/08/12 10:46:28;;;;;;;4.90;2.10;;;;;;;29.55;35.90;101019.46;109608;1264;21972;-77
2022/08/12 10:49:00;;;;;;;2.80;1.80;;;;;;;29.48;35.83;101023.02;109610;1264;21979;-76
2022/08/12 10:51:50;;;;;;;5.40;1.90;;;;;;;29.23;35.87;101024.91;109337;1263;22048;-77
2022/08/12 10:54:45;;;;;;;2.10;1.90;;;;;;;28.74;36.39;101018.42;110190;1257;22734;-77
2022/08/12 10:57:20;;;;;;;2.40;1.70;;;;;;;28.30;37.14;101019.52;110375;1257;22506;-76
2022/08/12 11:00:15;;;;;;;2.70;1.80;;;;;;;28.01;38.12;101017.73;110169;1257;22085;-76
2022/08/12 11:03:08;;;;;;;3.60;2.10;;;;;;;27.99;38.69;101016.31;109903;1260;23660;-76
2022/08/12 11:06:01;;;;;;;3.20;2.10;;;;;;;27.94;38.37;101013.20;109999;1260;22026;-76
2022/08/12 11:08:59;;;;;;;3.20;2.60;;;;;;;27.85;38.71;101003.19;109978;1260;22721;-76
2022/08/12 11:11:47;;;;;;;8.60;2.00;;;;;;;27.74;38.93;101003.56;109963;1260;21968;-76
2022/08/12 11:14:40;;;;;;;2.70;1.80;;;;;;;27.62;39.25;100992.49;109849;1262;21993;-77
2022/08/12 11:17:19;;;;;;;4.00;2.20;;;;;;;27.56;39.61;100990.09;109970;1259;24380;-75
2022/08/12 11:20:11;;;;;;;8.70;3.20;;;;;;;27.55;39.76;100992.36;109931;1260;23057;-75
2022/08/12 11:22:56;;;;;;;3.90;2.60;;;;;;;27.53;39.44;100997.73;110486;1256;21991;-75
2022/08/12 11:25:27;;;;;;;16.10;4.00;;;;;;;27.42;39.72;100992.47;110378;1256;21964;-75
2022/08/12 11:28:19;;;;;;;4.00;2.50;;;;;;;27.36;39.90;100986.96;110569;1253;24158;-74
2022/08/12 11:31:09;;;;;;;7.50;2.80;;;;;;;27.32;40.62;100984.83;109997;1260;21967;-75
2022/08/12 11:33:45;;;;;;;5.00;2.50;;;;;;;27.42;40.64;100986.23;110136;1260;22000;-75
2022/08/12 11:36:38;;;;;;;4.60;2.40;;;;;;;27.45;40.28;100989.17;109195;1264;24235;-76
2022/08/12 11:39:31;;;;;;;4.00;2.30;;;;;;;27.43;40.32;100985.84;108811;1270;21987;-76
2022/08/12 11:42:25;;;;;;;4.10;2.50;;;;;;;27.46;40.50;100983.80;108916;1270;21993;-75
2022/08/12 11:45:04;;;;;;;4.80;2.40;;;;;;;27.45;40.17;100981.42;108402;1278;23612;-76
2022/08/12 11:47:43;;;;;;;3.40;2.00;;;;;;;27.33;40.08;100979.73;108397;1275;23095;-76
2022/08/12 11:50:16;;;;;;;4.50;2.40;;;;;;;27.19;40.58;100981.34;108366;1275;22328;-76
2022/08/12 11:52:49;;;;;;;3.00;2.50;;;;;;;27.10;41.01;100978.89;108505;1276;22001;-75
2022/08/12 11:55:37;;;;;;;4.50;2.60;;;;;;;27.07;41.49;100983.25;108675;1272;22030;-74
2022/08/12 11:58:16;;;;;;;4.80;2.40;;;;;;;27.08;41.73;100976.42;108955;1264;22240;-74
2022/08/12 12:01:08;;;;;;;5.20;2.70;;;;;;;27.09;41.87;100980.11;109000;1267;21979;-75
2022/08/12 12:03:57;;;;;;;7.30;4.00;;;;;;;27.00;41.57;100982.67;109737;1260;21984;-74
2022/08/12 12:06:27;;;;;;;4.60;2.90;;;;;;;26.91;42.14;100981.85;109962;1257;22040;-75
2022/08/12 12:09:08;;;;;;;10.80;3.80;;;;;;;26.89;42.64;100980.80;109855;1259;21964;-76
2022/08/12 12:11:44;;;;;;;4.50;3.20;;;;;;;26.86;42.60;100981.06;110325;1260;23046;-77
2022/08/12 12:14:17;;;;;;;4.70;2.60;;;;;;;26.83;42.77;100974.04;110082;1260;22354;-77
2022/08/12 12:17:06;;;;;;;3.40;2.70;;;;;;;26.81;42.76;100965.80;110085;1258;22075;-75
2022/08/12 12:19:39;;;;;;;6.30;5.30;;;;;;;26.77;42.45;100969.45;109919;1260;21994;-75
2022/08/12 12:22:14;;;;;;;6.70;3.00;;;;;;;26.68;42.22;100970.75;109346;1261;21994;-74
2022/08/12 12:24:58;;;;;;;4.90;3.00;;;;;;;26.64;42.37;100967.95;108993;1270;22091;-77
2022/08/12 12:27:53;;;;;;;7.70;2.80;;;;;;;26.71;42.72;100966.92;109263;1264;21981;-76
2022/08/12 12:30:37;;;;;;;4.40;2.60;;;;;;;26.79;42.78;100960.58;109269;1264;21987;-76
2022/08/12 12:33:28;;;;;;;4.90;2.70;;;;;;;26.85;42.69;100961.48;109344;1263;22498;-76
2022/08/12 12:36:21;;;;;;;3.20;2.40;;;;;;;26.83;42.70;100960.05;109423;1264;21981;-76
2022/08/12 12:39:03;;;;;;;5.60;2.70;;;;;;;26.81;42.90;100959.18;109044;1267;23153;-76
2022/08/12 12:41:44;;;;;;;3.50;2.70;;;;;;;26.84;43.09;100959.64;109618;1264;23686;-75
2022/08/12 12:44:33;;;;;;;4.00;2.30;;;;;;;26.90;42.96;100956.09;109995;1258;21981;-75
2022/08/12 12:47:10;;;;;;;6.20;2.60;;;;;;;26.95;42.73;100948.30;110055;1257;22050;-76
2022/08/12 12:49:57;;;;;;;4.70;2.80;;;;;;;26.93;42.49;100947.80;110415;1257;21980;-75
2022/08/12 12:52:32;;;;;;;7.90;3.00;;;;;;;26.90;42.76;100948.93;109737;1261;22083;-77
2022/08/12 12:55:08;;;;;;;4.10;2.70;;;;;;;26.85;42.40;100946.73;109604;1262;23038;-75
2022/08/12 12:58:01;;;;;;;;;;;;;;;;;;;;;
2022/08/12 13:00:58;;;;;;;4.40;3.10;;;;;;;26.76;42.50;100939.73;109629;1260;21993;-78
2022/08/12 13:03:52;;;;;;;2.90;2.50;;;;;;;26.77;42.60;100942.95;109579;1261;22981;-75
2022/08/12 13:06:28;;;;;;;4.90;2.40;;;;;;;26.77;42.35;100938.39;109745;1260;21973;-75
2022/08/12 13:09:02;;;;;;;3.60;2.90;;;;;;;26.79;42.28;100938.12;109628;1262;21988;-76
2022/08/12 13:11:45;;;;;;;5.10;2.90;;;;;;;26.81;41.96;100934.95;109454;1261;21998;-75
2022/08/12 13:14:27;;;;;;;5.10;3.10;;;;;;;26.82;42.07;100934.63;109427;1263;22668;-77
2022/08/12 13:17:03;;;;;;;4.90;2.20;;;;;;;26.82;41.93;100935.98;109952;1262;21992;-76
2022/08/12 13:19:35;;;;;;;4.00;2.60;;;;;;;26.77;41.39;100937.85;109969;1262;21964;-76
2022/08/12 13:22:20;;;;;;;5.30;2.60;;;;;;;26.71;41.61;100932.61;109028;1267;22101;-74
2022/08/12 13:24:52;;;;;;;6.30;2.80;;;;;;;26.76;41.54;100923.31;109113;1267;23068;-74
2022/08/12 13:27:49;;;;;;;6.30;2.30;;;;;;;26.82;41.37;100925.79;109152;1267;22814;-76
2022/08/12 13:30:22;;;;;;;4.20;1.80;;;;;;;26.77;40.92;100929.55;109331;1265;21984;-76
2022/08/12 13:32:57;;;;;;;2.90;2.00;;;;;;;26.72;40.66;100927.63;109521;1264;22195;-75
2022/08/12 13:35:42;;;;;;;9.40;7.40;;;;;;;26.73;40.67;100922.16;109701;1261;22470;-76
2022/08/12 13:38:45;;;;;;;3.10;2.60;;;;;;;26.72;40.65;100915.21;109380;1265;22344;-75
2022/08/12 13:41:35;;;;;;;2.90;2.00;;;;;;;26.78;40.87;100912.38;109020;1267;23079;-75
2022/08/12 13:44:13;;;;;;;3.60;2.10;;;;;;;26.85;40.75;100915.89;109173;1266;21980;-74
2022/08/12 13:46:49;;;;;;;6.30;2.10;;;;;;;26.90;40.27;100916.67;108942;1268;22367;-76
2022/08/12 13:49:42;;;;;;;5.90;2.60;;;;;;;26.90;40.15;100915.11;109207;1266;23732;-75
2022/08/12 13:52:39;;;;;;;2.90;1.90;;;;;;;26.94;40.32;100915.77;109218;1265;21991;-75
2022/08/12 13:55:20;;;;;;;5.80;2.30;;;;;;;26.95;40.10;100912.09;109223;1267;23090;-75
2022/08/12 13:58:01;;;;;;;5.00;3.00;;;;;;;26.96;40.40;100912.91;109885;1260;23738;-75
2022/08/12 14:01:03;;;;;;;9.70;2.40;;;;;;;26.99;40.24;100910.38;110045;1259;25043;-75
2022/08/12 14:03:41;;;;;;;5.00;3.30;;;;;;;27.06;40.46;100908.41;110069;1257;22062;-75
2022/08/12 14:06:21;;;;;;;4.20;2.70;;;;;;;27.14;40.30;100910.31;109847;1260;24338;-75
2022/08/12 14:08:58;;;;;;;3.10;2.10;;;;;;;27.17;40.00;100907.46;110016;1258;21984;-75
2022/08/12 14:11:46;;;;;;;4.70;2.20;;;;;;;27.18;40.01;100907.02;110305;1258;22319;-75
2022/08/12 14:14:36;;;;;;;5.40;2.40;;;;;;;27.16;39.96;100905.99;109764;1260;23589;-75
2022/08/12 14:17:12;;;;;;;6.10;2.50;;;;;;;27.14;39.86;100899.09;109783;1259;21967;-75
2022/08/12 14:20:14;;;;;;;7.70;2.70;;;;;;;27.13;40.08;100902.05;110326;1254;23028;-75
2022/08/12 14:22:43;;;;;;;3.80;2.50;;;;;;;27.10;40.23;100907.75;109809;1261;21986;-76